Latest Weather Observations for Century Mine

IDQ60801

Issued at 9:22 am EST Tuesday 7 December 2021 (issued every 10 minutes, with the page automatically refreshed every 10 minutes)

About weather observations | Map of weather stations | Latest weather observations for QLD | Other Formats
Station Details ID: 029167 Name: CENTURY MINE Lat: -18.76 Lon: 138.71 Height: 126.8 m
Data from the previous 72 hours. | See also: Recent months at Century Mine
Date/Time
EST
Temp
°C
App
Temp
°C
Dew
Point
°C
Rel
Hum
%
Delta-T
°C
Wind Press
QNH
hPa
Press
MSL
hPa
Rain since
9am
mm
Dir  Spd
km/h
Gust
km/h
Spd
kts
Gust
kts
07/09:00am 31.0 29.4 15.0 38 9.9 SSE 17 24 9 13 1011.4 1010.4 0.0
07/08:30am 29.9 28.0 15.2 40 9.1 SSE 19 30 10 16 1011.3 1010.3 0.0
07/08:00am 28.4 27.4 17.6 52 6.9 S 19 32 10 17 1011.3 1010.3 0.0
07/07:30am 27.3 25.9 16.9 53 6.5 S 20 30 11 16 1011.3 1010.3 0.0
07/07:00am 27.2 26.8 17.1 54 6.3 SSE 15 24 8 13 1010.7 1009.7 0.0
07/06:30am 26.6 27.1 17.4 57 5.8 SSE 11 19 6 10 1010.3 1009.3 0.0
07/06:00am 26.6 26.6 17.1 56 6.0 S 13 20 7 11 1009.7 1008.7 0.0
07/05:30am 27.1 27.2 16.4 52 6.6 SSE 11 20 6 11 1009.5 1008.5 0.0
07/05:00am 27.5 26.3 16.1 49 7.1 SSE 17 24 9 13 1009.0 1008.0 0.0
07/04:30am 28.1 26.6 16.4 49 7.3 S 19 24 10 13 1008.6 1007.6 0.0
07/04:00am 27.6 28.4 17.2 53 6.6 S 9 11 5 6 1008.4 1007.4 0.0
07/03:30am 27.9 28.7 17.4 52 6.6 S 9 15 5 8 1008.1 1007.1 0.0
07/03:00am 26.9 27.7 17.4 56 6.0 SSE 9 13 5 7 1007.8 1006.8 0.0
07/02:30am 27.3 28.6 17.2 54 6.4 SE 6 7 3 4 1007.6 1006.6 0.0
07/02:00am 27.3 29.7 16.9 53 6.5 CALM 0 0 0 0 1007.8 1006.8 0.0
07/01:30am 28.4 29.7 17.0 50 7.2 NNW 6 7 3 4 1007.6 1006.6 0.0
07/01:00am 28.2 30.2 16.1 47 7.5 CALM 0 0 0 0 1007.7 1006.7 0.0
07/12:30am 29.5 30.5 16.3 45 8.3 NNE 6 7 3 4 1007.9 1006.9 0.0
07/12:00am 30.4 32.0 16.0 41 9.0 NNW 2 7 1 4 1008.4 1007.4 0.0
 
Date/Time
EST
Temp
°C
App
Temp
°C
Dew
Point
°C
Rel
Hum
%
Delta-T
°C
Wind Press
QNH
hPa
Press
MSL
hPa
Rain since
9am
mm
Dir  Spd
km/h
Gust
km/h
Spd
kts
Gust
kts
06/11:30pm 31.0 31.4 16.2 41 9.3 N 9 15 5 8 1008.5 1007.5 0.0
06/11:00pm 30.9 31.8 16.5 42 9.1 N 7 9 4 5 1008.3 1007.3 0.0
06/10:30pm 31.3 31.4 16.5 41 9.3 NNE 11 15 6 8 1007.9 1006.9 0.0
06/10:00pm 31.7 31.6 16.0 38 9.9 NNE 11 17 6 9 1007.7 1006.7 0.0
06/09:30pm 32.3 31.9 16.2 38 10.2 NNE 13 20 7 11 1007.1 1006.1 0.0
06/09:00pm 32.9 33.0 15.4 35 11.0 NNE 9 11 5 6 1006.7 1005.7 0.0
06/08:30pm 33.4 33.5 15.4 34 11.3 N 9 13 5 7 1006.5 1005.5 0.0
06/08:00pm 33.8 33.4 15.3 33 11.6 NNE 11 15 6 8 1006.1 1005.1 0.0
06/07:30pm 34.1 33.7 15.1 32 11.9 NNE 11 15 6 8 1005.9 1004.9 0.0
06/07:00pm 34.6 33.6 14.5 30 12.5 NE 13 17 7 9 1005.6 1004.6 0.0
06/06:30pm 35.2 34.9 14.5 29 12.9 NNE 9 15 5 8 1005.3 1004.3 0.0
06/06:00pm 35.7 35.0 14.4 28 13.3 NE 11 17 6 9 1005.2 1004.1 0.0
06/05:30pm 35.7 34.8 14.9 29 13.0 NE 13 20 7 11 1005.2 1004.1 0.0
06/05:00pm 35.5 34.8 15.3 30 12.7 NNE 13 20 7 11 1005.0 1003.9 0.0
06/04:30pm 36.2 35.3 14.8 28 13.4 ENE 13 20 7 11 1005.1 1004.0 0.0
06/04:00pm 36.8 35.3 15.3 28 13.6 ENE 17 26 9 14 1005.3 1004.3 0.0
06/03:30pm 35.3 34.5 15.1 30 12.7 NNE 13 26 7 14 1005.6 1004.6 0.0
06/03:00pm 35.0 33.3 14.8 29 12.6 NE 17 28 9 15 1006.1 1005.1 0.0
06/02:30pm 35.4 34.1 15.7 31 12.5 NE 17 30 9 16 1006.5 1005.5 0.0
06/02:00pm 35.1 34.2 15.9 31 12.2 ENE 15 30 8 16 1006.9 1005.9 0.0
06/01:30pm 34.9 33.6 17.2 35 11.4 ENE 20 30 11 16 1007.2 1006.2 0.0
06/01:00pm 32.9 30.6 15.8 35 10.8 NE 22 32 12 17 1007.8 1006.8 0.0
06/12:30pm 32.6 31.6 17.6 40 9.7 ENE 19 26 10 14 1008.2 1007.2 0.0
06/12:00pm 31.5 30.3 17.4 43 9.0 ENE 20 32 11 17 1009.1 1008.1 0.0
06/11:30am 31.0 29.3 18.0 45 8.4 ENE 24 37 13 20 1009.7 1008.7 0.0
06/11:00am 30.4 28.1 17.5 46 8.2 ENE 26 37 14 20 1009.9 1008.9 0.0
06/10:30am 30.8 28.2 16.8 43 8.9 NE 26 39 14 21 1009.7 1008.7 0.0
06/10:00am 31.3 28.2 15.7 39 9.7 E 26 39 14 21 1010.0 1009.0 0.0
06/09:30am 31.0 29.0 15.4 38 9.7 E 20 35 11 19 1010.1 1009.1 0.0
06/09:00am 30.0 28.2 16.1 43 8.7 E 20 30 11 16 1010.1 1009.1 0.0
06/08:30am 29.3 28.3 16.5 46 8.0 ESE 17 24 9 13 1010.0 1009.0 0.0
06/08:00am 28.8 27.7 16.4 47 7.8 ESE 17 28 9 15 1010.0 1009.0 0.0
06/07:30am 27.8 26.7 16.4 50 7.1 SE 17 22 9 12 1010.0 1009.0 0.0
06/07:00am 26.8 24.8 16.4 53 6.5 SE 22 37 12 20 1009.9 1008.9 0.0
06/06:30am 27.1 25.2 15.8 50 7.0 ESE 20 32 11 17 1009.7 1008.7 0.0
06/06:00am 27.7 25.7 15.4 47 7.6 ESE 20 28 11 15 1009.1 1008.1 0.0
06/05:30am 27.8 26.4 15.5 47 7.6 ESE 17 24 9 13 1008.5 1007.5 0.0
06/05:00am 28.0 26.5 16.3 49 7.3 SE 19 28 10 15 1007.9 1006.9 0.0
06/04:30am 27.9 27.0 16.8 50 7.0 SSE 17 26 9 14 1007.7 1006.7 0.0
06/04:00am 27.5 27.8 17.9 55 6.1 SSE 13 22 7 12 1007.6 1006.6 0.0
06/03:30am 27.5 27.5 18.2 57 5.9 S 15 24 8 13 1007.7 1006.7 0.0
06/03:00am 27.6 26.6 17.5 54 6.4 SSW 19 26 10 14 1007.6 1006.6 0.0
06/02:30am 28.3 25.1 16.2 47 7.5 S 28 43 15 23 1007.6 1006.6 0.0
06/02:17am 29.4 26.2 16.2 44 8.2 SSW 28 43 15 23 1007.1 1006.1 0.0
06/02:00am 30.0 30.0 17.1 46 8.2 SSW 13 20 7 11 1007.0 1006.0 0.0
06/01:30am 29.8 31.0 17.3 47 7.9 SSW 7 11 4 6 1006.6 1005.6 0.0
06/01:00am 30.0 30.3 17.1 46 8.2 WSW 11 15 6 8 1006.1 1005.1 0.0
06/12:30am 30.0 30.7 17.1 46 8.2 WSW 9 15 5 8 1006.1 1005.1 0.0
06/12:00am 29.8 29.7 16.9 45 8.2 WSW 13 17 7 9 1006.5 1005.5 0.0
 
Date/Time
EST
Temp
°C
App
Temp
°C
Dew
Point
°C
Rel
Hum
%
Delta-T
°C
Wind Press
QNH
hPa
Press
MSL
hPa
Rain since
9am
mm
Dir  Spd
km/h
Gust
km/h
Spd
kts
Gust
kts
05/11:30pm 29.6 30.2 16.8 46 8.1 WNW 9 15 5 8 1006.8 1005.8 0.0
05/11:00pm 29.5 29.9 16.3 45 8.3 WNW 9 15 5 8 1007.0 1006.0 0.0
05/10:30pm 29.5 28.9 15.6 43 8.6 WNW 13 19 7 10 1006.9 1005.9 0.0
05/10:00pm 29.9 28.1 14.4 38 9.5 NW 17 24 9 13 1007.2 1006.2 0.0
05/09:30pm 29.4 27.8 15.1 41 8.8 N 17 26 9 14 1006.6 1005.6 0.0
05/09:00pm 28.7 28.1 16.6 48 7.6 NNE 15 22 8 12 1006.8 1005.8 0.0
05/08:30pm 27.9 26.6 16.8 50 7.0 NE 19 28 10 15 1006.7 1005.7 0.0
05/08:00pm 29.3 26.3 15.8 44 8.4 ENE 26 46 14 25 1006.9 1005.9 0.0
05/07:54pm 29.3 26.9 15.4 42 8.6 NE 22 46 12 25 1006.3 1005.3 0.0
05/07:30pm 30.0 27.1 16.1 43 8.7 NNW 26 37 14 20 1005.0 1003.9 0.0
05/07:00pm 31.4 29.1 16.6 41 9.4 NW 24 33 13 18 1004.4 1003.3 0.0
05/06:30pm 31.7 31.1 15.6 37 10.0 N 13 17 7 9 1004.5 1003.4 0.0
05/06:08pm 33.7 30.8 15.2 33 11.6 NNE 24 59 13 32 1004.1 1003.0 0.0
05/06:00pm 34.6 31.1 15.5 32 12.1 NNE 28 39 15 21 1003.9 1002.8 0.0
05/05:49pm 34.7 29.5 14.6 30 12.5 NE 35 46 19 25 1003.7 1002.6 0.0
05/05:30pm 37.8 34.4 12.4 22 15.5 N 22 28 12 15 1002.9 1001.9 0.0
05/05:00pm 37.3 35.0 14.6 26 14.3 N 20 30 11 16 1002.9 1001.9 0.0
05/04:30pm 37.1 33.7 13.8 25 14.4 N 24 35 13 19 1003.1 1002.1 0.0
05/04:00pm 37.9 35.3 13.2 23 15.3 NW 19 24 10 13 1003.2 1002.2 0.0
05/03:30pm 38.0 36.3 12.6 22 15.5 NNE 13 20 7 11 1003.7 1002.6 0.0
05/03:00pm 38.7 36.3 12.5 21 16.1 NNE 17 26 9 14 1003.8 1002.7 0.0
05/02:51pm 39.7 37.8 11.7 19 17.0 N 13 17 7 9 1003.8 1002.7 0.0
05/02:41pm 38.5 36.9 11.5 20 16.3 NNE 11 19 6 10 1004.1 1003.0 0.0
05/02:30pm 38.4 36.6 12.2 21 15.9 NE 13 20 7 11 1004.3 1003.2 0.0
05/02:00pm 38.8 37.5 12.5 21 16.1 N 11 17 6 9 1004.8 1003.7 0.0
05/01:30pm 38.6 37.2 14.4 23 15.2 NE 15 20 8 11 1005.5 1004.5 0.0
05/01:00pm 39.2 38.5 14.3 23 15.7 NNE 11 20 6 11 1006.0 1005.0 0.0
05/12:30pm 38.7 38.0 13.2 22 15.8 ENE 9 15 5 8 1006.4 1005.4 0.0
05/12:00pm 36.8 36.8 15.3 28 13.6 SSW 9 15 5 8 1007.3 1006.3 0.0
05/11:30am 38.1 37.8 16.4 27 14.0 ENE 13 20 7 11 1007.8 1006.8 0.0
05/11:00am 37.3 37.7 16.3 29 13.5 NE 9 15 5 8 1008.4 1007.4 0.0
05/10:30am 37.1 37.6 16.6 29 13.2 ENE 9 15 5 8 1008.6 1007.6 0.0
05/10:00am 35.6 37.0 17.8 35 11.6 SSW 7 13 4 7 1008.8 1007.8 0.0
05/09:30am 34.9 36.4 18.9 39 10.6 S 9 17 5 9 1009.0 1008.0 0.0
05/09:00am 33.7 35.4 19.4 43 9.5 SW 9 19 5 10 1008.9 1007.9 0.0
05/08:30am 32.7 34.4 20.2 47 8.3 SW 11 17 6 9 1008.8 1007.8 0.0
05/08:00am 32.0 33.9 20.6 51 7.6 SW 11 17 6 9 1008.8 1007.8 0.0
05/07:30am 30.9 33.6 21.4 57 6.4 SSW 9 11 5 6 1008.5 1007.5 0.0
05/07:00am 29.1 32.6 21.8 64 4.9 S 6 11 3 6 1008.2 1007.2 0.0
05/06:30am 27.3 31.0 22.3 74 3.4 S 6 9 3 5 1007.8 1006.8 0.0
05/06:00am 26.0 29.1 21.4 76 3.1 S 7 9 4 5 1007.3 1006.3 0.0
05/05:30am 25.9 28.9 20.9 74 3.3 SSE 6 7 3 4 1007.0 1006.0 0.0
05/05:00am 26.1 30.3 20.9 73 3.4 CALM 0 0 0 0 1006.5 1005.5 0.0
05/04:30am 26.5 30.7 21.0 72 3.6 CALM 0 0 0 0 1006.4 1005.4 0.0
05/04:00am 27.0 30.5 21.1 70 3.9 NNE 4 7 2 4 1006.2 1005.2 0.0
05/03:30am 27.6 31.8 20.9 67 4.5 CALM 0 0 0 0 1006.4 1005.4 0.0
05/03:00am 28.2 32.5 21.2 65 4.7 CALM 0 0 0 0 1006.5 1005.5 0.0
05/02:30am 28.9 32.2 21.4 64 5.0 NW 6 7 3 4 1006.6 1005.6 0.0
05/02:00am 29.1 32.3 21.3 62 5.2 WNW 6 7 3 4 1006.8 1005.8 0.0
05/01:30am 29.6 32.4 21.5 61 5.5 NW 9 11 5 6 1007.2 1006.2 0.0
05/01:00am 30.0 32.7 21.4 60 5.8 NNW 9 11 5 6 1007.4 1006.4 0.0
05/12:30am 30.5 32.4 21.3 58 6.2 NNW 13 19 7 10 1007.7 1006.7 0.0
05/12:00am 31.0 32.5 21.2 56 6.6 NNW 15 20 8 11 1007.9 1006.9 0.0
 
Date/Time
EST
Temp
°C
App
Temp
°C
Dew
Point
°C
Rel
Hum
%
Delta-T
°C
Wind Press
QNH
hPa
Press
MSL
hPa
Rain since
9am
mm
Dir  Spd
km/h
Gust
km/h
Spd
kts
Gust
kts
04/11:30pm 31.3 32.6 20.9 54 7.0 NNW 15 20 8 11 1008.0 1007.0 0.0
04/11:00pm 31.9 33.5 20.8 51 7.5 NNW 13 20 7 11 1008.2 1007.2 0.0
04/10:30pm 32.3 33.0 20.5 49 7.9 N 17 22 9 12 1008.1 1007.1 0.0
04/10:00pm 32.4 33.6 20.6 49 7.9 N 15 24 8 13 1007.8 1006.8 0.0
04/09:30pm 32.5 34.2 21.0 50 7.8 N 13 17 7 9 1007.4 1006.4 0.0
04/09:00pm 32.8 34.4 20.7 49 8.1 N 13 17 7 9 1007.1 1006.1 0.0
04/08:30pm 33.1 33.5 19.9 45 8.8 N 17 26 9 14 1006.9 1005.9 0.0
04/08:00pm 33.2 33.5 19.7 45 9.0 NNE 17 24 9 13 1006.6 1005.6 0.0
04/07:30pm 33.4 31.4 19.1 42 9.4 NNE 28 39 15 21 1006.3 1005.3 0.0
04/07:00pm 35.4 31.8 17.1 33 11.8 NE 32 54 17 29 1005.9 1004.9 0.0
04/06:56pm 36.2 33.2 16.9 32 12.4 NE 28 54 15 29 1005.6 1004.6 0.0
04/06:30pm 39.1 35.8 9.6 17 17.3 E 17 28 9 15 1005.0 1003.9 0.0
04/06:00pm 39.0 35.8 8.6 16 17.7 E 15 24 8 13 1004.7 1003.6 0.0
04/05:30pm 39.5 35.5 9.0 16 17.8 ESE 20 32 11 17 1004.3 1003.2 0.0
04/05:00pm 39.9 36.3 8.4 15 18.3 ESE 17 28 9 15 1004.2 1003.1 0.0
04/04:30pm 41.1 38.1 9.3 15 18.8 E 15 28 8 15 1004.4 1003.3 0.0
04/04:00pm 41.4 37.5 9.6 15 18.9 ESE 20 35 11 19 1004.4 1003.3 0.0
04/03:30pm 41.4 38.2 8.5 14 19.2 SE 15 26 8 14 1004.6 1003.5 0.0
04/03:00pm 40.4 36.8 9.7 16 18.2 SE 19 30 10 16 1005.2 1004.1 0.0
04/02:30pm 40.8 36.4 9.1 15 18.6 SE 22 33 12 18 1005.5 1004.5 0.0
04/02:00pm 40.9 36.9 9.2 15 18.7 ESE 20 33 11 18 1005.9 1004.9 0.0
04/01:30pm 40.7 37.5 10.0 16 18.3 SE 17 28 9 15 1006.6 1005.6 0.0
04/01:00pm 39.0 35.0 10.4 18 17.0 E 22 32 12 17 1007.2 1006.2 0.0
04/12:30pm 40.3 37.8 12.2 19 17.2 E 17 26 9 14 1007.5 1006.5 0.0
04/12:00pm 39.8 36.1 10.2 17 17.6 ESE 20 35 11 19 1008.2 1007.2 0.0
04/11:30am 38.9 35.5 12.6 21 16.1 E 22 35 12 19 1008.8 1007.8 0.0
04/11:00am 38.8 36.4 12.5 21 16.1 ESE 17 30 9 16 1009.2 1008.2 0.0
04/10:30am 37.6 37.3 15.4 26 14.1 ESE 11 20 6 11 1009.5 1008.5 0.0
04/10:00am 36.9 36.2 15.4 28 13.6 ESE 13 19 7 10 1009.7 1008.7 0.0
04/09:30am 36.1 35.7 16.3 31 12.7 SSE 13 20 7 11 1010.1 1009.1 0.0

Other formats

Comma delimited format used in spreadsheet applications
http://www.bom.gov.au/fwo/IDQ60801/IDQ60801.94261.axf

JavaScript Object Notation format (JSON) in row-major order
http://www.bom.gov.au/fwo/IDQ60801/IDQ60801.94261.json

Data quality

Most of these data are generated automatically and are frequently updated. Quality checks on data are not normally performed. It is possible for incorrect values to appear. Refer to information at About Latest Weather Observations and please check the disclaimer before using these data.